Tuesday, August 30, 2016
20:47 UTC
  |  Log In   |  Register Free
Airport Search:

Big Bear City Airport
(KL35)

Big Bear City Airport Diagram
No Airport Diagram Available

FAA data valid effective Jul 21 2016 - Sep 15 2016 (unless otherwise noted).

 
 
 
 
 
 
 
 
 
 
 
 
 
 
Current Aviation Weather for KL35

Weather Summary


The most recent METAR observation for L35 was updated at: 04:47 UTC
METAR for L35 is not available. Closest METAR is for
METAR

METAR KL35 302035Z 05008G17KT 10SM SCT110 26/M02 A3027 RMK AO2

METAR KL35 302015Z 06007KT 10SM CLR 26/M02 A3028 RMK AO2

METAR KL35 301955Z 11006KT 10SM CLR 26/M01 A3028 RMK AO2

METAR KL35 301935Z 06010G15KT 10SM CLR 25/M02 A3029 RMK AO2

METAR KL35 301915Z 05006KT 10SM CLR 25/M02 A3029 RMK AO2

METAR KL35 301855Z 07006G17KT 10SM CLR 25/M03 A3030 RMK AO2

METAR KL35 301835Z 08009G15KT 10SM CLR 25/M02 A3031 RMK AO2

METAR KL35 301815Z 05007KT 10SM CLR 25/M02 A3031 RMK AO2

METAR KL35 301755Z 34004G08KT 10SM CLR 25/M01 A3031 RMK AO2

METAR KPSP 301953Z 13005KT 10SM CLR 44/02 A2976 RMK AO2 SLP071 T04390022

METAR KRIV 301958Z 30008KT 10SM CLR 36/13 A2986 RMK AO2A SLPNO T03630131

METAR KSBD 302050Z 26008KT 6SM HZ FEW060 39/10 A2983

TAF for L35 is not available.
TAF

KRIV - TAF KRIV 302002Z 3020/0102 33009KT 9999 FEW120 QNH2984INS

KRIV - TEMPO 3022/3102 32012G20KT

KRIV - BECMG 3102/3103 VRB06KT 9999 FEW120 QNH2983INS

KRIV - BECMG 3117/3118 30012KT 9999 FEW120 QNH2988INS TX39/3022Z TN20/3112Z =

KPSP - TAF KPSP 301731Z 3018/3118 VRB06KT P6SM SKC

KPSP - FM302000 15007KT P6SM SKC

KPSP - FM310000 33006KT P6SM SKC =

KNXP - TAF KNXP 3015/3115 VRB05KT 9999 FEW100 QNH2984INS

KNXP - TEMPO 3019/3101 13008G15KT T40/3023Z T25/3113Z =

GlobalAir.com is loading additional information.
 Current Weather at L35
77.0 F° (25.0 C°)

East winds at 6.9 mph
Pressure:
30.30 in
Humidity:
15%
Wind:
East at 6.9 mph
Dew Point:
26.6 F° (-3.0 C°)
Visibility:
10.00 mi
L35 NOAA Radar




Find All Airport Services Find A Hotel Find A Rental Car Find A Golf Course Find A Restaurant $100 Hamburger



Airport Weather Forecast for KL35

Translated METAR for KL35 (2035 UTC)
METAR:
KL35 302035Z AUTO Big Bear City, Big Bear City, CA (KL35). Aug 30, 2035Z, Automated. Wind from 050° at 8 knots with gusts to 17 knots, 10 statute miles visibility, Scattered Clouds at 11,000 feet, Temperature 26°C, Dewpoint -2°C, Altimeter is 30.27. Remarks: automated station with precipitation discriminator
Conditions at:
KL35 (Big Bear City, CA) observed 2035 UTC 30 August 2016
Temperature:
77.0 F° (25.0 C°)
Dewpoint:
not reported - refer to area weather report
Pressure:
30.30 Hg
Winds:
from the East at 6.9 gusting to 19.6 MPH (6 gusting to 17 KT)
Visibility:
10.00
Ceiling:
at least 12,000 feet AGL
Clouds:
not reported - refer to area weather report
Remarks:
site is un-manned

Translated TAF for TAF for L35 is not available. Refer to local area forecast.
FBO's on the Field
FBO Company Facility Photos Services Transportation Aviation Fuel Prices: Prices include tax
Catering Weather Repair Courtesy Rental Type 100LL JetA JetA+ MOGAS 8087
 
Big Bear Airport

This FBO has not yet been rated
FS:Epic
Last Updated: Aug-14
Login to update fuel prices
SS:
Contact Big Bear AirportMore FBO Information
 
Add another FBO Facility Photos Catering Weather Repair Courtesy Rental Type 100LL JetA JetA+ MOGAS 8087
Services Transportation Aviation Fuel Prices: Prices include tax


model-print
model-print
model-print
model-print